sensor_id;sensor_type;location;lat;lon;timestamp;temperature;humidity
64143;DHT22;50437;51.970;5.904;2023-06-04T00:01:42;14.60;80.20
64143;DHT22;50437;51.970;5.904;2023-06-04T00:04:10;14.50;80.20
64143;DHT22;50437;51.970;5.904;2023-06-04T00:06:36;14.40;82.10
64143;DHT22;50437;51.970;5.904;2023-06-04T00:09:03;14.40;81.40
64143;DHT22;50437;51.970;5.904;2023-06-04T00:11:29;14.40;83.00
64143;DHT22;50437;51.970;5.904;2023-06-04T00:13:55;14.40;82.90
64143;DHT22;50437;51.970;5.904;2023-06-04T00:16:21;14.30;81.90
64143;DHT22;50437;51.970;5.904;2023-06-04T00:18:47;14.30;83.50
64143;DHT22;50437;51.970;5.904;2023-06-04T00:21:13;14.20;83.00
64143;DHT22;50437;51.970;5.904;2023-06-04T00:23:41;14.20;84.30
64143;DHT22;50437;51.970;5.904;2023-06-04T00:26:08;14.20;83.50
64143;DHT22;50437;51.970;5.904;2023-06-04T00:28:34;14.20;83.30
64143;DHT22;50437;51.970;5.904;2023-06-04T00:31:02;14.20;83.50
64143;DHT22;50437;51.970;5.904;2023-06-04T00:33:28;14.20;83.90
64143;DHT22;50437;51.970;5.904;2023-06-04T00:35:54;14.00;85.10
64143;DHT22;50437;51.970;5.904;2023-06-04T00:38:20;14.10;85.10
64143;DHT22;50437;51.970;5.904;2023-06-04T00:40:47;14.00;85.40
64143;DHT22;50437;51.970;5.904;2023-06-04T00:43:16;14.00;84.90
64143;DHT22;50437;51.970;5.904;2023-06-04T00:45:43;14.00;84.40
64143;DHT22;50437;51.970;5.904;2023-06-04T00:48:09;13.90;86.50
64143;DHT22;50437;51.970;5.904;2023-06-04T00:50:38;13.80;85.20
64143;DHT22;50437;51.970;5.904;2023-06-04T00:53:05;14.00;85.20
64143;DHT22;50437;51.970;5.904;2023-06-04T00:55:31;13.90;85.50
64143;DHT22;50437;51.970;5.904;2023-06-04T00:57:58;13.90;84.60
64143;DHT22;50437;51.970;5.904;2023-06-04T01:00:25;13.90;86.40
64143;DHT22;50437;51.970;5.904;2023-06-04T01:02:55;13.80;86.20
64143;DHT22;50437;51.970;5.904;2023-06-04T01:05:29;13.80;86.40
64143;DHT22;50437;51.970;5.904;2023-06-04T01:07:57;13.80;86.50
64143;DHT22;50437;51.970;5.904;2023-06-04T01:10:23;13.80;86.70
64143;DHT22;50437;51.970;5.904;2023-06-04T01:12:50;13.60;87.90
64143;DHT22;50437;51.970;5.904;2023-06-04T01:15:16;13.60;86.80
64143;DHT22;50437;51.970;5.904;2023-06-04T01:17:44;13.60;88.30
64143;DHT22;50437;51.970;5.904;2023-06-04T01:20:18;13.50;88.30
64143;DHT22;50437;51.970;5.904;2023-06-04T01:25:22;13.60;87.40
64143;DHT22;50437;51.970;5.904;2023-06-04T01:27:53;13.50;87.10
64143;DHT22;50437;51.970;5.904;2023-06-04T01:30:23;13.50;87.50
64143;DHT22;50437;51.970;5.904;2023-06-04T01:32:49;13.60;86.90
64143;DHT22;50437;51.970;5.904;2023-06-04T01:35:15;13.40;87.00
64143;DHT22;50437;51.970;5.904;2023-06-04T01:37:41;13.40;87.80
64143;DHT22;50437;51.970;5.904;2023-06-04T01:40:08;13.50;86.90
64143;DHT22;50437;51.970;5.904;2023-06-04T01:42:34;13.40;88.20
64143;DHT22;50437;51.970;5.904;2023-06-04T01:45:01;13.40;88.40
64143;DHT22;50437;51.970;5.904;2023-06-04T01:47:27;13.20;88.30
64143;DHT22;50437;51.970;5.904;2023-06-04T01:49:56;13.30;88.00
64143;DHT22;50437;51.970;5.904;2023-06-04T01:52:23;13.30;89.20
64143;DHT22;50437;51.970;5.904;2023-06-04T01:54:50;13.30;89.20
64143;DHT22;50437;51.970;5.904;2023-06-04T01:57:19;13.30;89.30
64143;DHT22;50437;51.970;5.904;2023-06-04T01:59:47;13.30;89.20
64143;DHT22;50437;51.970;5.904;2023-06-04T02:02:13;13.20;89.60
64143;DHT22;50437;51.970;5.904;2023-06-04T02:04:40;13.20;89.50
64143;DHT22;50437;51.970;5.904;2023-06-04T02:07:10;13.20;89.70
64143;DHT22;50437;51.970;5.904;2023-06-04T02:09:39;13.20;90.40
64143;DHT22;50437;51.970;5.904;2023-06-04T02:12:06;13.00;90.30
64143;DHT22;50437;51.970;5.904;2023-06-04T02:14:32;13.10;90.40
64143;DHT22;50437;51.970;5.904;2023-06-04T02:16:58;13.00;90.10
64143;DHT22;50437;51.970;5.904;2023-06-04T02:19:26;13.10;90.80
64143;DHT22;50437;51.970;5.904;2023-06-04T02:21:53;12.90;91.50
64143;DHT22;50437;51.970;5.904;2023-06-04T02:24:22;12.90;91.00
64143;DHT22;50437;51.970;5.904;2023-06-04T02:26:49;12.90;91.00
64143;DHT22;50437;51.970;5.904;2023-06-04T02:29:15;12.90;91.60
64143;DHT22;50437;51.970;5.904;2023-06-04T02:31:43;12.90;91.70
64143;DHT22;50437;51.970;5.904;2023-06-04T02:34:09;12.90;91.10
64143;DHT22;50437;51.970;5.904;2023-06-04T02:36:35;12.90;91.50
64143;DHT22;50437;51.970;5.904;2023-06-04T02:39:01;12.90;91.60
64143;DHT22;50437;51.970;5.904;2023-06-04T02:41:27;12.80;91.90
64143;DHT22;50437;51.970;5.904;2023-06-04T02:43:53;12.80;91.40
64143;DHT22;50437;51.970;5.904;2023-06-04T02:46:19;12.80;91.90
64143;DHT22;50437;51.970;5.904;2023-06-04T02:48:46;12.70;93.10
64143;DHT22;50437;51.970;5.904;2023-06-04T02:51:14;12.70;92.70
64143;DHT22;50437;51.970;5.904;2023-06-04T02:53:40;12.70;92.60
64143;DHT22;50437;51.970;5.904;2023-06-04T02:56:07;12.60;92.60
64143;DHT22;50437;51.970;5.904;2023-06-04T02:58:33;12.60;92.90
64143;DHT22;50437;51.970;5.904;2023-06-04T03:01:05;12.60;93.20
64143;DHT22;50437;51.970;5.904;2023-06-04T03:03:31;12.60;93.40
64143;DHT22;50437;51.970;5.904;2023-06-04T03:05:58;12.60;93.70
64143;DHT22;50437;51.970;5.904;2023-06-04T03:08:25;12.60;93.70
64143;DHT22;50437;51.970;5.904;2023-06-04T03:10:51;12.60;93.80
64143;DHT22;50437;51.970;5.904;2023-06-04T03:13:22;12.60;94.40
64143;DHT22;50437;51.970;5.904;2023-06-04T03:15:48;12.60;94.40
64143;DHT22;50437;51.970;5.904;2023-06-04T03:18:14;12.50;94.50
64143;DHT22;50437;51.970;5.904;2023-06-04T03:20:41;12.50;95.30
64143;DHT22;50437;51.970;5.904;2023-06-04T03:23:07;12.40;95.10
64143;DHT22;50437;51.970;5.904;2023-06-04T03:25:36;12.40;95.40
64143;DHT22;50437;51.970;5.904;2023-06-04T03:28:02;12.30;96.20
64143;DHT22;50437;51.970;5.904;2023-06-04T03:30:29;12.30;97.00
64143;DHT22;50437;51.970;5.904;2023-06-04T03:33:01;12.30;97.20
64143;DHT22;50437;51.970;5.904;2023-06-04T03:35:28;12.30;97.20
64143;DHT22;50437;51.970;5.904;2023-06-04T03:37:54;12.30;97.80
64143;DHT22;50437;51.970;5.904;2023-06-04T03:40:21;12.20;98.20
64143;DHT22;50437;51.970;5.904;2023-06-04T03:42:48;12.20;97.90
64143;DHT22;50437;51.970;5.904;2023-06-04T03:45:17;12.20;98.40
64143;DHT22;50437;51.970;5.904;2023-06-04T03:47:45;12.20;98.70
64143;DHT22;50437;51.970;5.904;2023-06-04T03:50:11;12.10;99.00
64143;DHT22;50437;51.970;5.904;2023-06-04T03:52:37;12.30;99.70
64143;DHT22;50437;51.970;5.904;2023-06-04T03:55:05;12.30;99.90
64143;DHT22;50437;51.970;5.904;2023-06-04T03:57:31;12.30;99.90
64143;DHT22;50437;51.970;5.904;2023-06-04T04:00:02;12.20;99.90
64143;DHT22;50437;51.970;5.904;2023-06-04T04:02:39;12.20;99.90
64143;DHT22;50437;51.970;5.904;2023-06-04T04:05:06;12.20;99.90
64143;DHT22;50437;51.970;5.904;2023-06-04T04:07:40;12.20;99.90
64143;DHT22;50437;51.970;5.904;2023-06-04T04:10:07;12.10;99.90
64143;DHT22;50437;51.970;5.904;2023-06-04T04:12:33;12.10;99.90
64143;DHT22;50437;51.970;5.904;2023-06-04T04:14:59;12.10;99.90
64143;DHT22;50437;51.970;5.904;2023-06-04T04:17:25;12.10;99.90
64143;DHT22;50437;51.970;5.904;2023-06-04T04:19:52;12.10;99.90
64143;DHT22;50437;51.970;5.904;2023-06-04T04:22:18;12.20;99.90
64143;DHT22;50437;51.970;5.904;2023-06-04T04:24:44;12.10;99.90
64143;DHT22;50437;51.970;5.904;2023-06-04T04:27:10;12.10;99.90
64143;DHT22;50437;51.970;5.904;2023-06-04T04:29:42;12.20;99.90
64143;DHT22;50437;51.970;5.904;2023-06-04T04:32:09;12.20;99.90
64143;DHT22;50437;51.970;5.904;2023-06-04T04:34:51;12.30;99.90
64143;DHT22;50437;51.970;5.904;2023-06-04T04:37:19;12.10;99.90
64143;DHT22;50437;51.970;5.904;2023-06-04T04:39:48;12.10;99.90
64143;DHT22;50437;51.970;5.904;2023-06-04T04:42:19;12.20;99.90
64143;DHT22;50437;51.970;5.904;2023-06-04T04:44:49;12.20;99.90
64143;DHT22;50437;51.970;5.904;2023-06-04T04:47:19;12.30;99.90
64143;DHT22;50437;51.970;5.904;2023-06-04T04:49:45;12.30;99.90
64143;DHT22;50437;51.970;5.904;2023-06-04T04:52:11;12.30;99.90
64143;DHT22;50437;51.970;5.904;2023-06-04T04:54:40;12.30;99.90
64143;DHT22;50437;51.970;5.904;2023-06-04T04:57:09;12.30;99.90
64143;DHT22;50437;51.970;5.904;2023-06-04T04:59:36;12.30;99.90
64143;DHT22;50437;51.970;5.904;2023-06-04T05:02:02;12.40;99.90
64143;DHT22;50437;51.970;5.904;2023-06-04T05:04:29;12.50;99.90
64143;DHT22;50437;51.970;5.904;2023-06-04T05:06:55;12.50;99.90
64143;DHT22;50437;51.970;5.904;2023-06-04T05:09:22;12.50;99.90
64143;DHT22;50437;51.970;5.904;2023-06-04T05:11:49;12.50;99.90
64143;DHT22;50437;51.970;5.904;2023-06-04T05:14:16;12.60;99.90
64143;DHT22;50437;51.970;5.904;2023-06-04T05:16:43;12.60;99.90
64143;DHT22;50437;51.970;5.904;2023-06-04T05:19:12;12.80;99.90
64143;DHT22;50437;51.970;5.904;2023-06-04T05:21:40;12.70;99.90
64143;DHT22;50437;51.970;5.904;2023-06-04T05:24:24;12.90;99.90
64143;DHT22;50437;51.970;5.904;2023-06-04T05:26:51;12.90;99.90
64143;DHT22;50437;51.970;5.904;2023-06-04T05:29:20;13.00;99.90
64143;DHT22;50437;51.970;5.904;2023-06-04T05:31:47;13.00;99.90
64143;DHT22;50437;51.970;5.904;2023-06-04T05:34:17;13.00;99.90
64143;DHT22;50437;51.970;5.904;2023-06-04T05:36:45;13.10;99.90
64143;DHT22;50437;51.970;5.904;2023-06-04T05:39:12;13.10;99.90
64143;DHT22;50437;51.970;5.904;2023-06-04T05:41:53;13.20;99.90
64143;DHT22;50437;51.970;5.904;2023-06-04T05:44:19;13.10;99.90
64143;DHT22;50437;51.970;5.904;2023-06-04T05:46:46;13.30;99.90
64143;DHT22;50437;51.970;5.904;2023-06-04T05:49:13;13.30;99.90
64143;DHT22;50437;51.970;5.904;2023-06-04T05:51:40;13.30;99.90
64143;DHT22;50437;51.970;5.904;2023-06-04T05:54:06;13.40;99.90
64143;DHT22;50437;51.970;5.904;2023-06-04T05:56:35;13.60;99.90
64143;DHT22;50437;51.970;5.904;2023-06-04T05:59:02;13.60;99.90
64143;DHT22;50437;51.970;5.904;2023-06-04T06:01:28;13.70;99.90
64143;DHT22;50437;51.970;5.904;2023-06-04T06:03:55;13.80;99.90
64143;DHT22;50437;51.970;5.904;2023-06-04T06:06:24;13.90;99.90
64143;DHT22;50437;51.970;5.904;2023-06-04T06:08:50;14.00;99.90
64143;DHT22;50437;51.970;5.904;2023-06-04T06:11:17;14.10;99.90
64143;DHT22;50437;51.970;5.904;2023-06-04T06:13:43;14.10;99.90
64143;DHT22;50437;51.970;5.904;2023-06-04T06:16:10;14.20;99.90
64143;DHT22;50437;51.970;5.904;2023-06-04T06:18:37;14.20;99.90
64143;DHT22;50437;51.970;5.904;2023-06-04T06:21:03;14.30;99.90
64143;DHT22;50437;51.970;5.904;2023-06-04T06:23:30;14.40;99.90
64143;DHT22;50437;51.970;5.904;2023-06-04T06:25:56;14.50;99.90
64143;DHT22;50437;51.970;5.904;2023-06-04T06:28:26;14.60;99.90
64143;DHT22;50437;51.970;5.904;2023-06-04T06:30:53;14.80;99.90
64143;DHT22;50437;51.970;5.904;2023-06-04T06:33:19;16.80;96.90
64143;DHT22;50437;51.970;5.904;2023-06-04T06:35:47;19.70;91.90
64143;DHT22;50437;51.970;5.904;2023-06-04T06:38:13;21.80;81.00
64143;DHT22;50437;51.970;5.904;2023-06-04T06:40:40;23.20;73.80
64143;DHT22;50437;51.970;5.904;2023-06-04T06:43:07;23.90;67.10
64143;DHT22;50437;51.970;5.904;2023-06-04T06:45:33;24.10;64.70
64143;DHT22;50437;51.970;5.904;2023-06-04T06:48:02;24.70;61.20
64143;DHT22;50437;51.970;5.904;2023-06-04T06:50:29;24.80;59.10
64143;DHT22;50437;51.970;5.904;2023-06-04T06:52:55;25.30;57.80
64143;DHT22;50437;51.970;5.904;2023-06-04T06:55:21;25.60;55.50
64143;DHT22;50437;51.970;5.904;2023-06-04T06:57:47;25.70;56.30
64143;DHT22;50437;51.970;5.904;2023-06-04T07:00:13;25.90;56.10
64143;DHT22;50437;51.970;5.904;2023-06-04T07:02:39;26.50;54.70
64143;DHT22;50437;51.970;5.904;2023-06-04T07:05:06;26.70;54.40
64143;DHT22;50437;51.970;5.904;2023-06-04T07:07:32;26.80;52.00
64143;DHT22;50437;51.970;5.904;2023-06-04T07:09:58;27.10;50.90
64143;DHT22;50437;51.970;5.904;2023-06-04T07:12:24;26.90;51.20
64143;DHT22;50437;51.970;5.904;2023-06-04T07:14:50;27.10;48.80
64143;DHT22;50437;51.970;5.904;2023-06-04T07:17:17;27.10;51.30
64143;DHT22;50437;51.970;5.904;2023-06-04T07:19:43;26.70;50.30
64143;DHT22;50437;51.970;5.904;2023-06-04T07:22:12;27.10;48.50
64143;DHT22;50437;51.970;5.904;2023-06-04T07:24:38;27.30;47.90
64143;DHT22;50437;51.970;5.904;2023-06-04T07:27:14;27.60;47.80
64143;DHT22;50437;51.970;5.904;2023-06-04T07:29:42;27.60;47.80
64143;DHT22;50437;51.970;5.904;2023-06-04T07:32:09;28.00;47.60
64143;DHT22;50437;51.970;5.904;2023-06-04T07:34:35;28.10;47.10
64143;DHT22;50437;51.970;5.904;2023-06-04T07:37:03;28.60;47.00
64143;DHT22;50437;51.970;5.904;2023-06-04T07:39:29;28.60;45.70
64143;DHT22;50437;51.970;5.904;2023-06-04T07:41:57;29.10;44.20
64143;DHT22;50437;51.970;5.904;2023-06-04T07:44:23;29.60;47.00
64143;DHT22;50437;51.970;5.904;2023-06-04T07:46:50;29.50;44.00
64143;DHT22;50437;51.970;5.904;2023-06-04T07:49:16;29.00;48.00
64143;DHT22;50437;51.970;5.904;2023-06-04T07:51:45;29.30;45.50
64143;DHT22;50437;51.970;5.904;2023-06-04T07:54:12;28.70;43.70
64143;DHT22;50437;51.970;5.904;2023-06-04T07:56:40;28.70;48.10
64143;DHT22;50437;51.970;5.904;2023-06-04T07:59:06;28.70;45.30
64143;DHT22;50437;51.970;5.904;2023-06-04T08:01:33;29.40;47.50
64143;DHT22;50437;51.970;5.904;2023-06-04T08:07:45;27.40;49.40
64143;DHT22;50437;51.970;5.904;2023-06-04T08:10:21;26.10;48.90
64143;DHT22;50437;51.970;5.904;2023-06-04T08:15:41;25.70;48.20
64143;DHT22;50437;51.970;5.904;2023-06-04T08:18:09;25.60;46.20
64143;DHT22;50437;51.970;5.904;2023-06-04T08:20:46;26.00;45.00
64143;DHT22;50437;51.970;5.904;2023-06-04T08:23:15;25.90;44.50
64143;DHT22;50437;51.970;5.904;2023-06-04T08:25:41;26.20;45.90
64143;DHT22;50437;51.970;5.904;2023-06-04T08:28:12;26.00;45.50
64143;DHT22;50437;51.970;5.904;2023-06-04T08:30:56;26.30;44.30
64143;DHT22;50437;51.970;5.904;2023-06-04T08:33:22;26.80;46.40
64143;DHT22;50437;51.970;5.904;2023-06-04T08:35:48;27.10;41.60
64143;DHT22;50437;51.970;5.904;2023-06-04T08:38:15;28.00;43.00
64143;DHT22;50437;51.970;5.904;2023-06-04T08:40:41;27.60;40.40
64143;DHT22;50437;51.970;5.904;2023-06-04T08:43:11;28.10;40.70
64143;DHT22;50437;51.970;5.904;2023-06-04T08:45:38;28.60;40.30
64143;DHT22;50437;51.970;5.904;2023-06-04T08:48:05;28.40;40.60
64143;DHT22;50437;51.970;5.904;2023-06-04T08:50:33;28.00;42.20
64143;DHT22;50437;51.970;5.904;2023-06-04T08:53:00;28.60;39.30
64143;DHT22;50437;51.970;5.904;2023-06-04T08:55:26;29.00;37.60
64143;DHT22;50437;51.970;5.904;2023-06-04T08:57:52;29.30;38.70
64143;DHT22;50437;51.970;5.904;2023-06-04T09:00:19;29.20;41.00
64143;DHT22;50437;51.970;5.904;2023-06-04T09:02:46;29.10;39.70
64143;DHT22;50437;51.970;5.904;2023-06-04T09:05:20;28.60;38.50
64143;DHT22;50437;51.970;5.904;2023-06-04T09:07:46;29.20;44.30
64143;DHT22;50437;51.970;5.904;2023-06-04T09:10:15;29.20;36.50
64143;DHT22;50437;51.970;5.904;2023-06-04T09:12:43;28.90;40.10
64143;DHT22;50437;51.970;5.904;2023-06-04T09:15:11;29.80;38.20
64143;DHT22;50437;51.970;5.904;2023-06-04T09:17:40;29.30;35.70
64143;DHT22;50437;51.970;5.904;2023-06-04T09:20:06;29.10;37.20
64143;DHT22;50437;51.970;5.904;2023-06-04T09:22:35;28.70;36.60
64143;DHT22;50437;51.970;5.904;2023-06-04T09:25:05;28.90;36.60
64143;DHT22;50437;51.970;5.904;2023-06-04T09:27:38;28.70;33.50
64143;DHT22;50437;51.970;5.904;2023-06-04T09:30:07;28.40;35.40
64143;DHT22;50437;51.970;5.904;2023-06-04T09:32:35;28.90;35.70
64143;DHT22;50437;51.970;5.904;2023-06-04T09:35:11;28.40;37.20
64143;DHT22;50437;51.970;5.904;2023-06-04T09:37:38;28.80;37.40
64143;DHT22;50437;51.970;5.904;2023-06-04T09:40:05;29.60;34.40
64143;DHT22;50437;51.970;5.904;2023-06-04T09:42:41;29.90;34.20
64143;DHT22;50437;51.970;5.904;2023-06-04T09:45:08;30.10;35.50
64143;DHT22;50437;51.970;5.904;2023-06-04T09:47:43;29.50;32.90
64143;DHT22;50437;51.970;5.904;2023-06-04T09:50:13;29.40;37.10
64143;DHT22;50437;51.970;5.904;2023-06-04T09:52:39;29.70;33.50
64143;DHT22;50437;51.970;5.904;2023-06-04T09:55:18;28.50;34.90
64143;DHT22;50437;51.970;5.904;2023-06-04T09:57:51;28.80;33.40
64143;DHT22;50437;51.970;5.904;2023-06-04T10:00:22;28.80;36.80
64143;DHT22;50437;51.970;5.904;2023-06-04T10:02:50;28.80;33.70
64143;DHT22;50437;51.970;5.904;2023-06-04T10:05:17;28.40;32.90
64143;DHT22;50437;51.970;5.904;2023-06-04T10:07:46;28.10;32.40
64143;DHT22;50437;51.970;5.904;2023-06-04T10:10:14;28.60;34.60
64143;DHT22;50437;51.970;5.904;2023-06-04T10:12:41;28.70;34.40
64143;DHT22;50437;51.970;5.904;2023-06-04T10:15:10;29.10;36.90
64143;DHT22;50437;51.970;5.904;2023-06-04T10:17:36;29.50;35.70
64143;DHT22;50437;51.970;5.904;2023-06-04T10:20:03;29.60;37.20
64143;DHT22;50437;51.970;5.904;2023-06-04T10:22:35;28.90;34.50
64143;DHT22;50437;51.970;5.904;2023-06-04T10:25:01;28.40;33.10
64143;DHT22;50437;51.970;5.904;2023-06-04T10:27:29;29.30;34.20
64143;DHT22;50437;51.970;5.904;2023-06-04T10:29:56;29.50;34.70
64143;DHT22;50437;51.970;5.904;2023-06-04T10:32:33;29.40;34.60
64143;DHT22;50437;51.970;5.904;2023-06-04T10:35:11;30.00;35.90
64143;DHT22;50437;51.970;5.904;2023-06-04T10:37:38;29.30;37.40
64143;DHT22;50437;51.970;5.904;2023-06-04T10:40:04;28.80;32.70
64143;DHT22;50437;51.970;5.904;2023-06-04T10:42:41;28.60;33.50
64143;DHT22;50437;51.970;5.904;2023-06-04T10:45:08;28.60;37.60
64143;DHT22;50437;51.970;5.904;2023-06-04T10:47:35;29.00;32.20
64143;DHT22;50437;51.970;5.904;2023-06-04T10:52:35;28.20;35.80
64143;DHT22;50437;51.970;5.904;2023-06-04T10:55:05;28.70;34.90
64143;DHT22;50437;51.970;5.904;2023-06-04T10:57:32;28.20;34.80
64143;DHT22;50437;51.970;5.904;2023-06-04T10:59:59;29.10;35.60
64143;DHT22;50437;51.970;5.904;2023-06-04T11:02:25;29.30;35.20
64143;DHT22;50437;51.970;5.904;2023-06-04T11:04:59;29.10;32.50
64143;DHT22;50437;51.970;5.904;2023-06-04T11:07:27;28.40;34.10
64143;DHT22;50437;51.970;5.904;2023-06-04T11:09:53;28.40;35.20
64143;DHT22;50437;51.970;5.904;2023-06-04T11:12:19;28.10;34.90
64143;DHT22;50437;51.970;5.904;2023-06-04T11:14:55;28.90;33.60
64143;DHT22;50437;51.970;5.904;2023-06-04T11:17:26;28.40;33.30
64143;DHT22;50437;51.970;5.904;2023-06-04T11:19:53;28.40;35.70
64143;DHT22;50437;51.970;5.904;2023-06-04T11:22:21;28.00;37.90
64143;DHT22;50437;51.970;5.904;2023-06-04T11:24:47;28.10;35.90
64143;DHT22;50437;51.970;5.904;2023-06-04T11:27:14;28.10;33.50
64143;DHT22;50437;51.970;5.904;2023-06-04T11:29:40;28.10;35.80
64143;DHT22;50437;51.970;5.904;2023-06-04T11:32:06;28.10;36.60
64143;DHT22;50437;51.970;5.904;2023-06-04T11:34:32;28.50;35.00
64143;DHT22;50437;51.970;5.904;2023-06-04T11:37:08;28.70;33.30
64143;DHT22;50437;51.970;5.904;2023-06-04T11:39:37;28.40;35.10
64143;DHT22;50437;51.970;5.904;2023-06-04T11:42:09;28.40;34.20
64143;DHT22;50437;51.970;5.904;2023-06-04T11:44:35;28.70;33.80
64143;DHT22;50437;51.970;5.904;2023-06-04T11:47:04;28.60;35.50
64143;DHT22;50437;51.970;5.904;2023-06-04T11:49:31;28.30;34.00
64143;DHT22;50437;51.970;5.904;2023-06-04T11:51:57;27.70;35.40
64143;DHT22;50437;51.970;5.904;2023-06-04T11:54:23;27.90;34.10
64143;DHT22;50437;51.970;5.904;2023-06-04T11:56:50;27.70;34.20
64143;DHT22;50437;51.970;5.904;2023-06-04T11:59:17;27.80;36.80
64143;DHT22;50437;51.970;5.904;2023-06-04T12:01:44;27.70;34.60
64143;DHT22;50437;51.970;5.904;2023-06-04T12:04:14;27.50;37.20
64143;DHT22;50437;51.970;5.904;2023-06-04T12:06:58;28.00;34.70
64143;DHT22;50437;51.970;5.904;2023-06-04T12:09:30;27.60;34.60
64143;DHT22;50437;51.970;5.904;2023-06-04T12:12:09;27.90;34.50
64143;DHT22;50437;51.970;5.904;2023-06-04T12:14:35;27.80;34.50
64143;DHT22;50437;51.970;5.904;2023-06-04T12:17:08;27.80;35.50
64143;DHT22;50437;51.970;5.904;2023-06-04T12:19:45;27.70;37.70
64143;DHT22;50437;51.970;5.904;2023-06-04T12:22:12;27.80;35.50
64143;DHT22;50437;51.970;5.904;2023-06-04T12:24:48;27.30;34.20
64143;DHT22;50437;51.970;5.904;2023-06-04T12:27:14;27.40;36.80
64143;DHT22;50437;51.970;5.904;2023-06-04T12:29:41;27.40;35.40
64143;DHT22;50437;51.970;5.904;2023-06-04T12:32:08;27.80;36.30
64143;DHT22;50437;51.970;5.904;2023-06-04T12:34:43;27.90;35.30
64143;DHT22;50437;51.970;5.904;2023-06-04T12:37:11;27.50;37.30
64143;DHT22;50437;51.970;5.904;2023-06-04T12:39:37;27.50;35.20
64143;DHT22;50437;51.970;5.904;2023-06-04T12:42:05;27.60;36.50
64143;DHT22;50437;51.970;5.904;2023-06-04T12:44:31;27.40;34.90
64143;DHT22;50437;51.970;5.904;2023-06-04T12:46:59;27.10;36.10
64143;DHT22;50437;51.970;5.904;2023-06-04T12:49:26;27.00;36.90
64143;DHT22;50437;51.970;5.904;2023-06-04T12:51:52;27.30;34.90
64143;DHT22;50437;51.970;5.904;2023-06-04T12:54:18;27.40;34.70
64143;DHT22;50437;51.970;5.904;2023-06-04T12:56:44;27.30;36.00
64143;DHT22;50437;51.970;5.904;2023-06-04T12:59:11;26.80;36.90
64143;DHT22;50437;51.970;5.904;2023-06-04T13:01:41;27.20;36.30
64143;DHT22;50437;51.970;5.904;2023-06-04T13:04:07;27.00;35.00
64143;DHT22;50437;51.970;5.904;2023-06-04T13:06:34;26.90;36.80
64143;DHT22;50437;51.970;5.904;2023-06-04T13:09:00;27.10;34.90
64143;DHT22;50437;51.970;5.904;2023-06-04T13:11:27;27.10;35.80
64143;DHT22;50437;51.970;5.904;2023-06-04T13:13:53;27.40;36.00
64143;DHT22;50437;51.970;5.904;2023-06-04T13:16:19;27.20;37.00
64143;DHT22;50437;51.970;5.904;2023-06-04T13:18:46;27.50;36.90
64143;DHT22;50437;51.970;5.904;2023-06-04T13:21:12;27.40;34.20
64143;DHT22;50437;51.970;5.904;2023-06-04T13:23:38;26.80;35.70
64143;DHT22;50437;51.970;5.904;2023-06-04T13:26:04;27.40;37.60
64143;DHT22;50437;51.970;5.904;2023-06-04T13:28:30;27.60;36.00
64143;DHT22;50437;51.970;5.904;2023-06-04T13:30:59;27.40;36.50
64143;DHT22;50437;51.970;5.904;2023-06-04T13:33:26;27.50;35.70
64143;DHT22;50437;51.970;5.904;2023-06-04T13:35:53;27.60;34.90
64143;DHT22;50437;51.970;5.904;2023-06-04T13:38:19;27.80;39.10
64143;DHT22;50437;51.970;5.904;2023-06-04T13:40:45;27.50;35.00
64143;DHT22;50437;51.970;5.904;2023-06-04T13:43:12;27.40;37.60
64143;DHT22;50437;51.970;5.904;2023-06-04T13:45:44;27.80;35.70
64143;DHT22;50437;51.970;5.904;2023-06-04T13:48:12;27.80;35.30
64143;DHT22;50437;51.970;5.904;2023-06-04T13:50:39;27.80;35.60
64143;DHT22;50437;51.970;5.904;2023-06-04T13:53:07;27.50;35.00
64143;DHT22;50437;51.970;5.904;2023-06-04T13:55:36;27.50;34.80
64143;DHT22;50437;51.970;5.904;2023-06-04T13:58:02;27.30;34.40
64143;DHT22;50437;51.970;5.904;2023-06-04T14:00:29;27.00;35.10
64143;DHT22;50437;51.970;5.904;2023-06-04T14:02:56;27.00;35.10
64143;DHT22;50437;51.970;5.904;2023-06-04T14:05:24;27.30;36.00
64143;DHT22;50437;51.970;5.904;2023-06-04T14:07:50;27.50;34.60
64143;DHT22;50437;51.970;5.904;2023-06-04T14:10:16;27.40;35.30
64143;DHT22;50437;51.970;5.904;2023-06-04T14:12:43;27.60;36.20
64143;DHT22;50437;51.970;5.904;2023-06-04T14:15:10;27.70;35.60
64143;DHT22;50437;51.970;5.904;2023-06-04T14:17:37;27.50;34.60
64143;DHT22;50437;51.970;5.904;2023-06-04T14:20:05;27.00;34.80
64143;DHT22;50437;51.970;5.904;2023-06-04T14:22:33;27.10;36.90
64143;DHT22;50437;51.970;5.904;2023-06-04T14:25:01;27.00;35.10
64143;DHT22;50437;51.970;5.904;2023-06-04T14:27:31;27.10;35.00
64143;DHT22;50437;51.970;5.904;2023-06-04T14:29:57;27.00;35.80
64143;DHT22;50437;51.970;5.904;2023-06-04T14:32:23;26.90;37.60
64143;DHT22;50437;51.970;5.904;2023-06-04T14:34:49;27.20;35.80
64143;DHT22;50437;51.970;5.904;2023-06-04T14:37:15;27.10;37.50
64143;DHT22;50437;51.970;5.904;2023-06-04T14:39:48;27.10;36.00
64143;DHT22;50437;51.970;5.904;2023-06-04T14:42:15;27.40;37.80
64143;DHT22;50437;51.970;5.904;2023-06-04T14:44:41;27.30;34.60
64143;DHT22;50437;51.970;5.904;2023-06-04T14:47:09;27.40;36.10
64143;DHT22;50437;51.970;5.904;2023-06-04T14:49:36;27.50;35.80
64143;DHT22;50437;51.970;5.904;2023-06-04T14:52:05;27.30;36.30
64143;DHT22;50437;51.970;5.904;2023-06-04T14:54:33;27.30;35.20
64143;DHT22;50437;51.970;5.904;2023-06-04T14:57:00;27.40;37.70
64143;DHT22;50437;51.970;5.904;2023-06-04T14:59:28;27.40;35.60
64143;DHT22;50437;51.970;5.904;2023-06-04T15:01:54;27.50;35.70
64143;DHT22;50437;51.970;5.904;2023-06-04T15:04:20;27.50;35.90
64143;DHT22;50437;51.970;5.904;2023-06-04T15:06:46;27.80;36.90
64143;DHT22;50437;51.970;5.904;2023-06-04T15:09:13;27.40;35.80
64143;DHT22;50437;51.970;5.904;2023-06-04T15:11:42;27.30;36.00
64143;DHT22;50437;51.970;5.904;2023-06-04T15:14:11;27.00;35.90
64143;DHT22;50437;51.970;5.904;2023-06-04T15:16:38;26.70;34.50
64143;DHT22;50437;51.970;5.904;2023-06-04T15:19:05;26.90;36.60
64143;DHT22;50437;51.970;5.904;2023-06-04T15:21:31;26.80;35.40
64143;DHT22;50437;51.970;5.904;2023-06-04T15:24:00;26.80;35.80
64143;DHT22;50437;51.970;5.904;2023-06-04T15:26:26;26.80;35.00
64143;DHT22;50437;51.970;5.904;2023-06-04T15:28:56;26.80;35.40
64143;DHT22;50437;51.970;5.904;2023-06-04T15:31:22;27.00;37.80
64143;DHT22;50437;51.970;5.904;2023-06-04T15:33:48;27.10;36.10
64143;DHT22;50437;51.970;5.904;2023-06-04T15:36:18;27.00;35.80
64143;DHT22;50437;51.970;5.904;2023-06-04T15:38:47;26.90;36.00
64143;DHT22;50437;51.970;5.904;2023-06-04T15:41:17;26.90;36.30
64143;DHT22;50437;51.970;5.904;2023-06-04T15:43:46;27.10;36.50
64143;DHT22;50437;51.970;5.904;2023-06-04T15:46:15;26.90;36.20